Time;durP1;ratioP1;P1;durP2;ratioP2;P2;SDS_P1;SDS_P2;PMS_P1;PMS_P2;Temp;Humidity;BMP_temperature;BMP_pressure;BME280_temperature;BME280_humidity;BME280_pressure;Samples;Min_cycle;Max_cycle;Signal;HPM_P1;HPM_P2
2021/08/16 00:01:21;;;;;;;;;;;25.20;99.90;;;;;;1865488;75;20182;-91
2021/08/16 00:03:51;;;;;;;;;;;25.20;99.90;;;;;;1871011;75;20235;-90
2021/08/16 00:06:32;;;;;;;;;;;25.20;99.90;;;;;;1850150;75;20251;-90
2021/08/16 00:09:03;;;;;;;;;;;25.30;99.90;;;;;;1843502;76;20243;-89
2021/08/16 00:12:18;;;;;;;;;;;;;;;;;;;;;
2021/08/16 00:14:30;;;;;;;;;;;25.30;99.90;;;;;;1844561;77;20236;-91
2021/08/16 00:17:02;;;;;;;;;;;25.30;99.90;;;;;;1848189;77;20125;-91
2021/08/16 00:19:42;;;;;;;;;;;25.40;99.90;;;;;;1856168;76;20200;-90
2021/08/16 00:22:18;;;;;;;;;;;25.40;99.90;;;;;;1851553;76;20448;-92
2021/08/16 00:24:45;;;;;;;;;;;25.40;99.90;;;;;;1831448;77;20441;-91
2021/08/16 00:27:22;;;;;;;;;;;25.40;99.90;;;;;;1830431;77;20224;-91
2021/08/16 00:29:57;;;;;;;;;;;25.50;99.90;;;;;;1814272;76;20291;-91
2021/08/16 00:32:42;;;;;;;;;;;25.50;99.90;;;;;;1842452;76;20239;-92
2021/08/16 00:35:04;;;;;;;;;;;25.40;99.90;;;;;;1850302;76;20113;-91
2021/08/16 00:37:38;;;;;;;;;;;25.50;99.90;;;;;;1830988;77;20435;-91
2021/08/16 00:40:34;;;;;;;;;;;25.50;99.90;;;;;;1809813;76;20188;-89
2021/08/16 00:43:13;;;;;;;;;;;25.50;99.90;;;;;;1836739;76;20216;-90
2021/08/16 00:46:13;;;;;;;;;;;25.50;99.90;;;;;;1828626;77;20213;-89
2021/08/16 00:49:06;;;;;;;;;;;25.60;99.90;;;;;;1832673;75;20121;-89
2021/08/16 00:51:41;;;;;;;;;;;25.60;99.90;;;;;;1836474;77;20135;-89
2021/08/16 00:54:12;;;;;;;;;;;25.60;99.90;;;;;;1867110;76;20250;-89
2021/08/16 00:56:43;;;;;;;;;;;25.60;99.90;;;;;;1809709;77;20209;-89
2021/08/16 00:59:24;;;;;;;;;;;25.60;99.90;;;;;;1827884;77;20180;-90
2021/08/16 01:02:06;;;;;;;;;;;25.60;99.90;;;;;;1842728;76;20157;-89
2021/08/16 01:04:40;;;;;;;;;;;25.70;99.90;;;;;;1855659;76;20255;-90
2021/08/16 01:07:17;;;;;;;;;;;25.70;99.90;;;;;;1858303;76;20252;-90
2021/08/16 01:09:48;;;;;;;;;;;25.70;99.90;;;;;;1846392;77;20241;-93
2021/08/16 01:12:49;;;;;;;;;;;25.70;99.90;;;;;;1843194;76;20228;-89
2021/08/16 01:15:33;;;;;;;;;;;25.70;99.90;;;;;;1820174;76;20469;-91
2021/08/16 01:18:03;;;;;;;;;;;25.80;99.90;;;;;;1845226;75;20499;-91
2021/08/16 01:20:33;;;;;;;;;;;25.80;99.90;;;;;;1834407;77;20187;-89
2021/08/16 01:23:07;;;;;;;;;;;25.80;99.90;;;;;;1849735;75;20182;-89
2021/08/16 01:25:58;;;;;;;;;;;25.90;99.90;;;;;;1845270;77;20170;-91
2021/08/16 01:31:55;;;;;;;;;;;25.90;99.90;;;;;;1692880;82;20236;-94
2021/08/16 01:34:45;;;;;;;;;;;25.90;99.90;;;;;;1942021;73;20480;-91
2021/08/16 01:38:55;;;;;;;;;;;25.90;99.90;;;;;;1848262;77;20199;-91
2021/08/16 01:40:12;;;;;;;;;;;25.90;99.90;;;;;;1809233;77;20212;-89
2021/08/16 01:42:52;;;;;;;;;;;25.90;99.90;;;;;;1866125;76;20193;-90
2021/08/16 01:46:10;;;;;;;;;;;;;;;;;;;;;
2021/08/16 01:51:15;;;;;;;;;;;26.00;99.90;;;;;;1774037;77;20169;-90
2021/08/16 01:51:23;;;;;;;;;;;25.90;99.90;;;;;;1761083;77;20188;-91
2021/08/16 01:53:48;;;;;;;;;;;26.00;99.90;;;;;;1894196;75;20224;-90
2021/08/16 01:56:25;;;;;;;;;;;26.10;99.90;;;;;;1918659;73;20581;-90
2021/08/16 01:59:00;;;;;;;;;;;26.20;99.90;;;;;;1871050;73;20075;-91
2021/08/16 02:01:30;;;;;;;;;;;26.20;99.90;;;;;;1903344;72;20234;-91
2021/08/16 02:04:03;;;;;;;;;;;26.20;99.90;;;;;;1903417;73;20258;-92
2021/08/16 02:06:48;;;;;;;;;;;;;;;;;;;;;
2021/08/16 02:09:17;;;;;;;;;;;26.20;99.90;;;;;;1899291;73;20138;-91
2021/08/16 02:12:03;;;;;;;;;;;26.20;99.90;;;;;;1910987;73;20213;-92
2021/08/16 02:17:59;;;;;;;;;;;26.20;99.90;;;;;;1830812;76;20438;-91
2021/08/16 02:20:34;;;;;;;;;;;26.20;99.90;;;;;;1838186;76;20123;-91
2021/08/16 02:23:10;;;;;;;;;;;26.20;99.90;;;;;;1849570;76;20194;-90
2021/08/16 02:25:47;;;;;;;;;;;26.20;99.90;;;;;;1851568;76;20165;-90
2021/08/16 02:28:21;;;;;;;;;;;26.30;99.90;;;;;;1857371;76;20270;-89
2021/08/16 02:31:23;;;;;;;;;;;26.30;99.90;;;;;;1842593;76;20177;-93
2021/08/16 02:34:17;;;;;;;;;;;26.30;99.90;;;;;;1753421;81;20188;-90
2021/08/16 02:37:53;;;;;;;;;;;26.30;99.90;;;;;;1738809;80;20220;-91
2021/08/16 02:40:07;;;;;;;;;;;26.40;99.90;;;;;;1739939;82;20266;-89
2021/08/16 02:42:50;;;;;;;;;;;;;;;;;;;;;
2021/08/16 02:45:25;;;;;;;;;;;26.60;99.90;;;;;;1746241;81;20211;-92
2021/08/16 02:48:04;;;;;;;;;;;26.60;99.90;;;;;;1757919;80;20205;-90
2021/08/16 02:50:41;;;;;;;;;;;26.60;99.90;;;;;;1741466;81;20284;-90
2021/08/16 02:53:07;;;;;;;;;;;26.60;99.90;;;;;;1740979;82;20265;-90
2021/08/16 02:55:58;;;;;;;;;;;26.70;99.90;;;;;;1782930;79;20231;-89
2021/08/16 02:58:11;;;;;;;;;;;26.70;99.90;;;;;;1763929;80;20206;-92
2021/08/16 03:00:46;;;;;;;;;;;26.80;99.90;;;;;;1798177;78;20183;-89
2021/08/16 03:03:20;;;;;;;;;;;26.80;99.90;;;;;;1835580;77;20181;-89
2021/08/16 03:05:52;;;;;;;;;;;26.90;99.90;;;;;;1839869;77;20232;-91
2021/08/16 03:08:39;;;;;;;;;;;27.00;99.90;;;;;;1843489;76;20597;-92
2021/08/16 03:11:15;;;;;;;;;;;27.00;99.90;;;;;;1884664;72;20155;-91
2021/08/16 03:14:01;;;;;;;;;;;27.10;99.90;;;;;;1973432;72;20154;-92
2021/08/16 03:16:34;;;;;;;;;;;27.20;99.90;;;;;;1957314;72;20117;-92
2021/08/16 03:19:09;;;;;;;;;;;27.40;99.90;;;;;;1967848;72;20167;-91
2021/08/16 03:21:44;;;;;;;;;;;27.50;99.90;;;;;;1973195;72;20169;-91
2021/08/16 03:24:21;;;;;;;;;;;27.60;99.90;;;;;;1959888;72;20208;-91
2021/08/16 03:26:53;;;;;;;;;;;27.70;99.90;;;;;;1971462;72;20214;-91
2021/08/16 03:29:24;;;;;;;;;;;27.80;99.90;;;;;;1910621;74;20174;-92
2021/08/16 03:32:00;;;;;;;;;;;27.80;99.90;;;;;;1907452;74;20220;-91
2021/08/16 03:34:28;;;;;;;;;;;27.90;99.90;;;;;;1909081;74;20167;-93
2021/08/16 03:37:03;;;;;;;;;;;28.00;99.90;;;;;;1905023;74;20194;-92
2021/08/16 03:39:41;;;;;;;;;;;28.10;99.90;;;;;;1905138;74;20252;-92
2021/08/16 03:42:13;;;;;;;;;;;28.20;99.90;;;;;;1909057;74;20470;-92
2021/08/16 03:44:50;;;;;;;;;;;28.30;99.90;;;;;;1904620;74;20184;-91
2021/08/16 03:47:33;;;;;;;;;;;28.30;99.90;;;;;;1893634;74;20126;-91
2021/08/16 03:50:10;;;;;;;;;;;28.30;99.90;;;;;;1904446;74;20200;-90
2021/08/16 03:52:47;;;;;;;;;;;28.40;99.90;;;;;;1895055;74;20187;-93
2021/08/16 03:55:29;;;;;;;;;;;28.40;99.90;;;;;;1894746;75;20242;-92
2021/08/16 03:57:51;;;;;;;;;;;28.40;99.90;;;;;;1881519;75;20154;-92
2021/08/16 04:00:26;;;;;;;;;;;28.40;99.90;;;;;;1891857;75;20233;-92
2021/08/16 04:02:59;;;;;;;;;;;28.30;99.90;;;;;;1893950;74;20490;-91
2021/08/16 04:05:27;;;;;;;;;;;28.30;99.90;;;;;;1876918;75;20187;-92
2021/08/16 04:07:58;;;;;;;;;;;28.30;99.90;;;;;;1885302;74;20374;-91
2021/08/16 04:10:37;;;;;;;;;;;28.40;99.90;;;;;;1892798;75;20199;-93
2021/08/16 04:13:15;;;;;;;;;;;28.60;99.90;;;;;;1891393;75;20166;-91
2021/08/16 04:15:43;;;;;;;;;;;28.80;99.90;;;;;;1889563;75;20198;-92
2021/08/16 04:18:13;;;;;;;;;;;28.90;99.30;;;;;;1889039;75;20187;-91
2021/08/16 04:20:43;;;;;;;;;;;29.10;98.00;;;;;;1894615;75;20227;-91
2021/08/16 04:23:17;;;;;;;;;;;29.10;98.30;;;;;;1893453;75;20223;-90
2021/08/16 04:25:49;;;;;;;;;;;29.30;98.30;;;;;;1886970;75;20198;-89
2021/08/16 04:28:24;;;;;;;;;;;29.40;98.30;;;;;;1866398;75;20230;-89
2021/08/16 04:30:57;;;;;;;;;;;29.50;97.40;;;;;;1899054;75;20135;-91
2021/08/16 04:33:29;;;;;;;;;;;29.50;97.60;;;;;;1894110;75;20289;-92
2021/08/16 04:36:16;;;;;;;;;;;29.50;96.60;;;;;;1895951;75;20250;-91
2021/08/16 04:38:55;;;;;;;;;;;29.50;97.10;;;;;;1885086;75;20182;-92
2021/08/16 04:41:26;;;;;;;;;;;29.60;96.60;;;;;;1891255;75;20264;-91
2021/08/16 04:44:07;;;;;;;;;;;29.60;96.80;;;;;;1888415;75;20248;-90
2021/08/16 04:46:32;;;;;;;;;;;29.60;97.00;;;;;;1891778;75;20155;-90
2021/08/16 04:49:04;;;;;;;;;;;29.60;96.70;;;;;;1893256;74;20199;-92
2021/08/16 04:51:37;;;;;;;;;;;29.60;95.70;;;;;;1893755;74;20202;-91
2021/08/16 04:54:08;;;;;;;;;;;29.60;96.20;;;;;;1902830;74;20401;-89
2021/08/16 04:56:40;;;;;;;;;;;29.60;95.90;;;;;;1898107;74;20262;-90
2021/08/16 04:59:13;;;;;;;;;;;29.60;96.50;;;;;;1901552;74;20221;-92
2021/08/16 05:01:43;;;;;;;;;;;29.60;96.50;;;;;;1899722;74;20202;-91
2021/08/16 05:04:12;;;;;;;;;;;29.60;95.60;;;;;;1900241;74;20189;-92
2021/08/16 05:06:56;;;;;;;;;;;29.60;95.00;;;;;;1892350;74;20202;-92
2021/08/16 05:09:22;;;;;;;;;;;29.50;95.10;;;;;;1891083;74;20194;-90
2021/08/16 05:11:51;;;;;;;;;;;29.60;95.60;;;;;;1903037;74;20639;-93
2021/08/16 05:14:31;;;;;;;;;;;29.60;95.50;;;;;;1903567;74;20213;-93
2021/08/16 05:17:01;;;;;;;;;;;29.60;95.10;;;;;;1904197;74;20276;-91
2021/08/16 05:19:34;;;;;;;;;;;29.60;95.20;;;;;;1897585;74;20132;-93
2021/08/16 05:22:02;;;;;;;;;;;29.70;95.00;;;;;;1903878;74;20208;-90
2021/08/16 05:24:40;;;;;;;;;;;29.70;94.70;;;;;;1897011;74;20449;-93
2021/08/16 05:27:10;;;;;;;;;;;29.70;95.10;;;;;;1887222;74;20223;-90
2021/08/16 05:29:42;;;;;;;;;;;29.80;95.00;;;;;;1895188;75;20163;-94
2021/08/16 05:32:15;;;;;;;;;;;29.70;94.70;;;;;;1908037;74;20205;-91
2021/08/16 05:34:48;;;;;;;;;;;29.70;95.00;;;;;;1899715;74;20195;-93
2021/08/16 05:37:19;;;;;;;;;;;29.70;95.30;;;;;;1900344;74;20132;-91
2021/08/16 05:40:07;;;;;;;;;;;29.60;95.50;;;;;;1902164;74;20308;-92
2021/08/16 05:42:44;;;;;;;;;;;29.60;95.30;;;;;;1889639;75;20146;-92
2021/08/16 05:45:14;;;;;;;;;;;29.60;95.00;;;;;;1961950;73;20156;-92
2021/08/16 05:47:48;;;;;;;;;;;29.60;95.10;;;;;;1966445;71;20194;-95
2021/08/16 05:50:23;;;;;;;;;;;29.60;95.10;;;;;;1959866;71;20161;-92
2021/08/16 05:52:56;;;;;;;;;;;29.50;94.90;;;;;;1960536;72;20187;-90
2021/08/16 05:55:32;;;;;;;;;;;29.50;95.30;;;;;;1960838;73;20167;-91
2021/08/16 05:58:03;;;;;;;;;;;29.60;95.00;;;;;;1961976;72;20167;-92
2021/08/16 06:00:40;;;;;;;;;;;29.70;95.00;;;;;;1962849;72;20611;-92
2021/08/16 06:03:14;;;;;;;;;;;29.80;94.70;;;;;;1965365;72;20246;-90
2021/08/16 06:05:51;;;;;;;;;;;29.90;94.40;;;;;;1939713;72;20204;-90
2021/08/16 06:08:37;;;;;;;;;;;;;;;;;;;;;
2021/08/16 06:11:22;;;;;;;;;;;30.00;93.30;;;;;;1932841;72;20536;-92
2021/08/16 06:13:49;;;;;;;;;;;30.00;93.80;;;;;;1961640;72;20232;-92
2021/08/16 06:16:26;;;;;;;;;;;30.10;93.50;;;;;;1962724;72;20183;-91
2021/08/16 06:18:59;;;;;;;;;;;30.30;93.60;;;;;;1966372;72;20235;-89
2021/08/16 06:21:39;;;;;;;;;;;;;;;;;;;;;
2021/08/16 06:24:38;;;;;;;;;;;;;;;;;;;;;
2021/08/16 06:27:11;;;;;;;;;;;30.40;93.00;;;;;;1878032;76;20227;-92
2021/08/16 06:29:53;;;;;;;;;;;30.40;92.40;;;;;;1872748;75;20249;-90
2021/08/16 06:32:24;;;;;;;;;;;30.40;92.90;;;;;;1880430;75;20204;-91
2021/08/16 06:35:21;;;;;;;;;;;30.40;92.70;;;;;;1878434;76;20206;-92
2021/08/16 06:38:00;;;;;;;;;;;30.30;93.10;;;;;;1876988;76;20182;-90
2021/08/16 06:40:37;;;;;;;;;;;30.30;93.00;;;;;;1876717;76;20253;-91
2021/08/16 06:43:12;;;;;;;;;;;30.40;92.00;;;;;;1869227;76;20420;-90
2021/08/16 06:45:40;;;;;;;;;;;30.30;92.70;;;;;;1877856;76;20181;-92
2021/08/16 06:48:16;;;;;;;;;;;30.30;93.00;;;;;;1878837;73;20140;-93
2021/08/16 06:50:57;;;;;;;;;;;30.40;93.00;;;;;;1843623;76;20212;-91
2021/08/16 06:53:47;;;;;;;;;;;30.40;94.00;;;;;;1831498;75;20249;-92
2021/08/16 06:56:30;;;;;;;;;;;30.40;93.60;;;;;;1913081;73;20171;-90
2021/08/16 06:58:58;;;;;;;;;;;30.50;92.30;;;;;;1913573;74;20175;-90
2021/08/16 07:01:38;;;;;;;;;;;;;;;;;;;;;
2021/08/16 07:04:05;;;;;;;;;;;30.50;92.10;;;;;;1965230;72;20257;-90
2021/08/16 07:06:38;;;;;;;;;;;30.40;93.10;;;;;;1971262;72;20287;-76
2021/08/16 07:09:08;;;;;;;;;;;30.40;92.60;;;;;;1960596;72;20167;-76
2021/08/16 07:11:38;;;;;;;;;;;30.40;92.60;;;;;;1962284;72;20175;-78
2021/08/16 07:14:07;;;;;;;;;;;30.50;92.80;;;;;;1964913;72;20485;-76
2021/08/16 07:16:37;;;;;;;;;;;30.50;92.10;;;;;;1960785;72;20114;-76
2021/08/16 07:19:07;;;;;;;;;;;30.50;92.40;;;;;;1958100;72;20124;-76
2021/08/16 07:21:37;;;;;;;;;;;30.50;92.90;;;;;;1962991;72;20132;-76
2021/08/16 07:24:07;;;;;;;;;;;30.50;92.40;;;;;;1958496;72;20478;-76
2021/08/16 07:26:36;;;;;;;;;;;30.40;91.80;;;;;;1964412;72;20505;-76
2021/08/16 07:29:06;;;;;;;;;;;30.50;92.10;;;;;;1961327;71;20555;-77
2021/08/16 07:31:36;;;;;;;;;;;30.50;92.60;;;;;;1960494;71;20212;-77
2021/08/16 07:34:06;;;;;;;;;;;30.60;92.50;;;;;;1961388;71;20560;-76
2021/08/16 07:36:36;;;;;;;;;;;30.80;92.10;;;;;;1961483;72;20241;-77
2021/08/16 07:39:05;;;;;;;;;;;30.90;92.00;;;;;;1962025;73;20227;-77
2021/08/16 07:41:35;;;;;;;;;;;31.00;91.10;;;;;;1964895;72;20234;-77
2021/08/16 07:44:05;;;;;;;;;;;31.00;90.90;;;;;;1958308;72;20474;-76
2021/08/16 07:46:35;;;;;;;;;;;30.90;91.30;;;;;;1962402;72;20240;-77
2021/08/16 07:49:05;;;;;;;;;;;30.90;91.70;;;;;;1961926;71;20784;-76
2021/08/16 07:51:34;;;;;;;;;;;31.00;91.00;;;;;;1961822;73;20440;-77
2021/08/16 07:54:05;;;;;;;;;;;31.00;91.00;;;;;;1968700;72;20515;-77
2021/08/16 07:56:34;;;;;;;;;;;31.00;90.70;;;;;;1973066;72;20472;-76
2021/08/16 07:59:04;;;;;;;;;;;30.90;90.90;;;;;;1967415;72;20204;-76
2021/08/16 08:01:34;;;;;;;;;;;30.90;91.20;;;;;;1965081;73;20179;-77
2021/08/16 08:04:04;;;;;;;;;;;30.90;90.60;;;;;;1914624;74;20221;-77
2021/08/16 08:06:34;;;;;;;;;;;31.00;90.50;;;;;;1908902;74;20235;-77
2021/08/16 08:09:04;;;;;;;;;;;31.00;90.50;;;;;;1916740;75;20235;-76
2021/08/16 08:11:34;;;;;;;;;;;31.00;90.70;;;;;;1933440;73;20357;-77
2021/08/16 08:14:04;;;;;;;;;;;31.10;90.50;;;;;;1918908;73;20520;-77
2021/08/16 08:16:34;;;;;;;;;;;31.20;90.20;;;;;;1910416;74;20461;-77
2021/08/16 08:19:04;;;;;;;;;;;31.20;90.30;;;;;;1908614;74;20218;-79
2021/08/16 08:21:34;;;;;;;;;;;31.30;90.10;;;;;;1907674;74;20186;-78
2021/08/16 08:24:03;;;;;;;;;;;31.30;90.00;;;;;;1922382;74;20194;-77
2021/08/16 08:26:33;;;;;;;;;;;31.20;90.20;;;;;;1907730;74;20463;-77
2021/08/16 08:29:04;;;;;;;;;;;31.20;89.60;;;;;;1915701;74;20436;-79
2021/08/16 08:31:37;;;;;;;;;;;31.20;87.80;;;;;;1911869;74;20225;-78
2021/08/16 08:34:05;;;;;;;;;;;31.20;88.80;;;;;;1913532;74;20183;-78
2021/08/16 08:36:36;;;;;;;;;;;31.30;88.90;;;;;;1907731;74;20171;-78
2021/08/16 08:39:06;;;;;;;;;;;31.30;88.90;;;;;;1915258;74;20187;-77
2021/08/16 08:41:35;;;;;;;;;;;31.30;88.60;;;;;;1917472;74;20178;-76
2021/08/16 08:44:10;;;;;;;;;;;31.30;88.90;;;;;;1921524;74;20195;-81
2021/08/16 08:46:38;;;;;;;;;;;31.30;88.80;;;;;;1907503;74;20179;-78
2021/08/16 08:49:08;;;;;;;;;;;31.30;88.70;;;;;;1911980;74;20157;-78
2021/08/16 08:51:38;;;;;;;;;;;31.30;88.80;;;;;;1912361;74;20487;-78
2021/08/16 08:54:10;;;;;;;;;;;31.30;89.50;;;;;;1915945;74;20220;-78
2021/08/16 08:56:41;;;;;;;;;;;31.30;87.20;;;;;;1963240;71;20446;-79
2021/08/16 08:59:11;;;;;;;;;;;31.30;87.90;;;;;;1965773;71;20168;-79
2021/08/16 09:01:42;;;;;;;;;;;31.30;87.10;;;;;;1945014;71;20218;-78
2021/08/16 09:04:13;;;;;;;;;;;31.20;87.30;;;;;;1955738;72;20256;-76
2021/08/16 09:06:44;;;;;;;;;;;31.20;87.50;;;;;;1951046;72;20238;-79
2021/08/16 09:09:16;;;;;;;;;;;31.20;87.20;;;;;;1969535;72;20474;-78
2021/08/16 09:11:48;;;;;;;;;;;31.10;87.50;;;;;;1966236;72;20159;-77
2021/08/16 09:14:18;;;;;;;;;;;31.10;87.80;;;;;;1964765;72;20306;-78
2021/08/16 09:16:49;;;;;;;;;;;31.10;87.30;;;;;;1957232;72;20162;-78
2021/08/16 09:19:20;;;;;;;;;;;31.00;87.20;;;;;;1965090;72;20264;-78
2021/08/16 09:22:02;;;;;;;;;;;31.10;88.30;;;;;;1949063;72;20259;-80
2021/08/16 09:24:23;;;;;;;;;;;31.10;87.40;;;;;;1952461;72;20228;-79
2021/08/16 09:26:53;;;;;;;;;;;31.10;88.30;;;;;;1963042;72;20189;-78
2021/08/16 09:29:24;;;;;;;;;;;31.00;87.80;;;;;;1954099;72;20185;-77
2021/08/16 09:31:55;;;;;;;;;;;31.00;88.00;;;;;;1954260;72;20195;-76
2021/08/16 09:34:26;;;;;;;;;;;31.00;87.80;;;;;;1964951;72;20560;-77
2021/08/16 09:37:00;;;;;;;;;;;31.00;87.40;;;;;;1973274;72;20155;-77
2021/08/16 09:39:27;;;;;;;;;;;30.90;87.90;;;;;;1945314;72;20489;-78
2021/08/16 09:41:58;;;;;;;;;;;30.80;88.20;;;;;;1961838;72;20250;-77
2021/08/16 09:44:33;;;;;;;;;;;30.70;88.10;;;;;;1954285;72;20147;-78
2021/08/16 09:47:01;;;;;;;;;;;30.70;88.60;;;;;;1958402;72;20191;-76
2021/08/16 09:49:32;;;;;;;;;;;30.60;88.70;;;;;;1955667;72;20221;-77
2021/08/16 09:52:03;;;;;;;;;;;30.50;88.80;;;;;;1959635;72;20128;-78
2021/08/16 09:54:34;;;;;;;;;;;30.50;89.30;;;;;;1957710;72;20229;-78
2021/08/16 09:57:06;;;;;;;;;;;30.50;89.30;;;;;;1966841;72;20178;-78
2021/08/16 09:59:36;;;;;;;;;;;30.40;89.40;;;;;;1966330;72;20172;-77
2021/08/16 10:02:07;;;;;;;;;;;30.40;89.60;;;;;;1968865;72;20481;-80
2021/08/16 10:04:37;;;;;;;;;;;30.40;89.40;;;;;;1968124;72;20206;-79
2021/08/16 10:07:10;;;;;;;;;;;30.40;89.60;;;;;;1970106;72;20330;-78
2021/08/16 10:09:41;;;;;;;;;;;30.40;90.00;;;;;;1965355;72;20463;-77
2021/08/16 10:12:13;;;;;;;;;;;30.40;89.80;;;;;;1975863;72;20200;-77
2021/08/16 10:14:44;;;;;;;;;;;30.40;90.00;;;;;;1964832;72;20155;-78
2021/08/16 10:17:15;;;;;;;;;;;30.40;90.10;;;;;;1970571;72;20199;-78
2021/08/16 10:19:45;;;;;;;;;;;30.40;90.30;;;;;;1969792;71;20190;-78
2021/08/16 10:22:15;;;;;;;;;;;30.30;90.30;;;;;;1971982;71;20176;-77
2021/08/16 10:24:45;;;;;;;;;;;30.30;90.30;;;;;;1975477;72;20170;-78
2021/08/16 10:27:15;;;;;;;;;;;30.40;90.60;;;;;;1968786;72;20505;-77
2021/08/16 10:29:45;;;;;;;;;;;30.30;91.10;;;;;;1969244;72;20527;-78
2021/08/16 10:32:16;;;;;;;;;;;30.30;91.00;;;;;;1969153;72;20508;-78
2021/08/16 10:34:46;;;;;;;;;;;30.30;91.80;;;;;;1971061;72;20440;-79
2021/08/16 10:37:19;;;;;;;;;;;30.10;91.90;;;;;;1969001;72;20111;-78
2021/08/16 10:39:51;;;;;;;;;;;29.90;92.90;;;;;;1969925;72;20203;-78
2021/08/16 10:42:21;;;;;;;;;;;29.60;93.70;;;;;;1969838;72;20188;-78
2021/08/16 10:44:54;;;;;;;;;;;29.40;94.30;;;;;;1970389;72;20168;-77
2021/08/16 10:47:24;;;;;;;;;;;29.20;94.80;;;;;;1968496;71;20151;-77
2021/08/16 10:49:58;;;;;;;;;;;29.10;95.30;;;;;;1908467;74;20209;-78
2021/08/16 10:52:31;;;;;;;;;;;29.00;95.80;;;;;;1890988;74;20497;-78
2021/08/16 10:55:00;;;;;;;;;;;28.90;96.10;;;;;;1905818;74;20213;-78
2021/08/16 10:57:32;;;;;;;;;;;28.80;96.50;;;;;;1896366;75;20302;-77
2021/08/16 11:00:01;;;;;;;;;;;28.80;97.10;;;;;;1964249;72;20151;-77
2021/08/16 11:02:32;;;;;;;;;;;28.70;97.10;;;;;;1964797;72;20232;-79
2021/08/16 11:05:04;;;;;;;;;;;28.60;97.00;;;;;;1967896;72;20257;-77
2021/08/16 11:07:35;;;;;;;;;;;28.60;96.90;;;;;;1966340;72;20210;-77
2021/08/16 11:10:06;;;;;;;;;;;28.50;97.10;;;;;;1971517;71;20216;-77
2021/08/16 11:12:43;;;;;;;;;;;28.50;97.10;;;;;;1965687;72;20207;-78
2021/08/16 11:15:08;;;;;;;;;;;28.50;97.20;;;;;;1961623;72;20198;-78
2021/08/16 11:17:38;;;;;;;;;;;28.50;97.10;;;;;;1965297;72;20693;-77
2021/08/16 11:20:15;;;;;;;;;;;28.50;97.20;;;;;;1959259;72;20124;-78
2021/08/16 11:22:45;;;;;;;;;;;28.50;97.10;;;;;;1964072;72;20163;-78
2021/08/16 11:25:14;;;;;;;;;;;28.50;97.30;;;;;;1961640;72;20157;-78
2021/08/16 11:27:44;;;;;;;;;;;28.50;97.20;;;;;;1967564;72;20476;-79
2021/08/16 11:30:13;;;;;;;;;;;28.40;97.20;;;;;;1959109;72;20442;-79
2021/08/16 11:32:44;;;;;;;;;;;28.50;97.40;;;;;;1978950;72;20126;-78
2021/08/16 11:35:15;;;;;;;;;;;28.40;97.70;;;;;;1966991;72;20601;-79
2021/08/16 11:37:48;;;;;;;;;;;28.40;97.60;;;;;;1965542;72;20137;-79
2021/08/16 11:40:17;;;;;;;;;;;28.40;97.80;;;;;;1968660;72;20242;-78
2021/08/16 11:42:48;;;;;;;;;;;28.40;97.90;;;;;;1961006;72;20165;-77
2021/08/16 11:45:21;;;;;;;;;;;28.40;97.90;;;;;;1962782;72;20261;-78
2021/08/16 11:47:51;;;;;;;;;;;28.40;98.00;;;;;;1962867;72;20378;-86
2021/08/16 11:50:23;;;;;;;;;;;28.30;98.10;;;;;;1959775;72;20175;-86
2021/08/16 11:52:53;;;;;;;;;;;28.40;98.10;;;;;;1964349;72;20967;-86
2021/08/16 11:55:26;;;;;;;;;;;28.40;98.20;;;;;;1966104;72;20176;-86
2021/08/16 11:57:56;;;;;;;;;;;28.40;98.40;;;;;;1969596;72;20242;-85
2021/08/16 12:00:27;;;;;;;;;;;28.40;98.20;;;;;;1971645;72;20516;-86
2021/08/16 12:02:58;;;;;;;;;;;28.40;98.30;;;;;;1977516;72;20195;-87
2021/08/16 12:05:29;;;;;;;;;;;28.40;98.30;;;;;;1972466;72;20173;-86
2021/08/16 12:07:59;;;;;;;;;;;28.40;98.40;;;;;;1973721;72;20149;-87
2021/08/16 12:10:29;;;;;;;;;;;28.40;98.60;;;;;;1967760;72;20165;-89
2021/08/16 12:13:02;;;;;;;;;;;28.40;98.40;;;;;;1981182;72;20533;-93
2021/08/16 12:15:39;;;;;;;;;;;28.40;97.80;;;;;;1967949;72;20219;-91
2021/08/16 12:18:08;;;;;;;;;;;28.40;97.40;;;;;;1969767;72;20181;-91
2021/08/16 12:20:40;;;;;;;;;;;28.40;97.40;;;;;;1973856;72;20582;-91
2021/08/16 12:23:11;;;;;;;;;;;28.30;97.20;;;;;;1973910;71;20199;-91
2021/08/16 12:26:12;;;;;;;;;;;;;;;;;;;;;
2021/08/16 12:28:40;;;;;;;;;;;28.30;96.70;;;;;;1964211;72;20233;-92
2021/08/16 12:31:16;;;;;;;;;;;28.30;96.70;;;;;;1977823;72;20205;-92
2021/08/16 12:33:43;;;;;;;;;;;28.30;96.80;;;;;;1888439;75;20443;-91
2021/08/16 12:36:15;;;;;;;;;;;28.20;97.10;;;;;;1912103;75;20224;-91
2021/08/16 12:38:50;;;;;;;;;;;28.30;96.70;;;;;;1929884;73;20228;-91
2021/08/16 12:41:21;;;;;;;;;;;28.30;96.80;;;;;;1936926;73;20130;-93
2021/08/16 12:43:51;;;;;;;;;;;28.20;96.70;;;;;;1928573;73;20176;-90
2021/08/16 12:49:43;;;;;;;;;;;;;;;;;;;;;
2021/08/16 12:52:21;;;;;;;;;;;28.20;96.80;;;;;;1937427;73;20203;-91
2021/08/16 12:54:51;;;;;;;;;;;28.20;96.90;;;;;;1912243;74;20201;-90
2021/08/16 12:57:32;;;;;;;;;;;28.20;96.90;;;;;;1927617;73;20172;-91
2021/08/16 13:00:00;;;;;;;;;;;28.20;96.80;;;;;;1929870;73;20431;-92
2021/08/16 13:02:41;;;;;;;;;;;28.20;96.70;;;;;;1900301;74;20178;-92
2021/08/16 13:05:58;;;;;;;;;;;28.10;96.70;;;;;;1893190;74;20211;-91
2021/08/16 13:08:45;;;;;;;;;;;28.10;96.60;;;;;;1871331;75;20203;-90
2021/08/16 13:14:28;;;;;;;;;;;28.10;96.70;;;;;;1754905;79;20280;-92
2021/08/16 13:14:56;;;;;;;;;;;28.10;96.70;;;;;;1931800;73;20533;-92
2021/08/16 13:17:06;;;;;;;;;;;28.10;96.80;;;;;;1823261;77;20456;-92
2021/08/16 13:19:34;;;;;;;;;;;28.10;96.70;;;;;;1833188;77;20204;-90
2021/08/16 13:22:07;;;;;;;;;;;28.10;96.70;;;;;;1835826;78;20186;-91
2021/08/16 13:24:37;;;;;;;;;;;28.10;96.70;;;;;;1848911;77;20562;-92
2021/08/16 13:27:36;;;;;;;;;;;28.10;96.70;;;;;;1837763;77;20205;-92
2021/08/16 13:30:09;;;;;;;;;;;28.00;96.50;;;;;;1835893;78;20177;-93
2021/08/16 13:36:07;;;;;;;;;;;28.00;96.60;;;;;;1834229;78;20224;-92
2021/08/16 13:38:39;;;;;;;;;;;28.00;96.50;;;;;;1835868;78;20487;-91
2021/08/16 13:41:10;;;;;;;;;;;28.00;96.60;;;;;;1823105;77;20197;-92
2021/08/16 13:55:56;;;;;;;;;;;27.90;96.50;;;;;;1925904;72;20176;-91
2021/08/16 13:58:39;;;;;;;;;;;27.90;96.70;;;;;;1945101;73;20503;-92
2021/08/16 14:01:04;;;;;;;;;;;27.90;96.80;;;;;;1935870;73;20446;-92
2021/08/16 14:03:35;;;;;;;;;;;27.90;96.80;;;;;;1943690;73;20468;-92
2021/08/16 14:06:08;;;;;;;;;;;27.90;96.90;;;;;;1941954;73;20152;-92
2021/08/16 14:08:38;;;;;;;;;;;27.90;96.90;;;;;;1949145;73;20152;-91
2021/08/16 14:11:09;;;;;;;;;;;27.90;97.00;;;;;;1946670;72;20200;-92
2021/08/16 14:13:42;;;;;;;;;;;27.90;97.00;;;;;;1887611;76;20206;-92
2021/08/16 14:16:16;;;;;;;;;;;27.90;97.00;;;;;;1859729;76;20139;-92
2021/08/16 14:18:44;;;;;;;;;;;27.90;97.00;;;;;;1938635;73;20215;-93
2021/08/16 14:21:14;;;;;;;;;;;27.90;97.00;;;;;;1944065;73;20195;-91
2021/08/16 14:23:45;;;;;;;;;;;27.90;97.00;;;;;;1938326;73;20160;-93
2021/08/16 14:26:17;;;;;;;;;;;27.90;97.20;;;;;;1938480;72;20153;-94
2021/08/16 14:28:51;;;;;;;;;;;27.90;97.30;;;;;;1952822;73;20208;-93
2021/08/16 14:31:29;;;;;;;;;;;27.90;97.40;;;;;;1913102;74;20195;-91
2021/08/16 14:33:54;;;;;;;;;;;27.90;97.50;;;;;;1933541;73;20161;-93
2021/08/16 14:36:31;;;;;;;;;;;27.90;97.60;;;;;;1941755;74;20170;-91
2021/08/16 14:38:55;;;;;;;;;;;27.80;97.60;;;;;;1937839;73;20427;-93
2021/08/16 14:41:25;;;;;;;;;;;27.90;97.80;;;;;;1939876;72;20468;-92
2021/08/16 14:43:55;;;;;;;;;;;27.80;97.80;;;;;;1940413;73;20305;-92
2021/08/16 14:46:33;;;;;;;;;;;27.80;97.80;;;;;;1937896;73;20192;-93
2021/08/16 14:49:01;;;;;;;;;;;27.80;97.90;;;;;;1938876;73;20140;-93
2021/08/16 14:54:22;;;;;;;;;;;27.70;98.10;;;;;;1785266;79;20127;-92
2021/08/16 14:56:54;;;;;;;;;;;27.70;98.20;;;;;;1776212;80;20207;-92
2021/08/16 14:59:28;;;;;;;;;;;27.70;98.30;;;;;;1770565;79;20256;-91
2021/08/16 15:01:58;;;;;;;;;;;27.70;98.40;;;;;;1761965;79;20181;-93
2021/08/16 15:04:28;;;;;;;;;;;27.60;98.50;;;;;;1767158;79;20179;-92
2021/08/16 15:06:58;;;;;;;;;;;27.60;98.60;;;;;;1748630;80;20252;-90
2021/08/16 15:09:28;;;;;;;;;;;27.60;98.60;;;;;;1750999;80;20520;-92
2021/08/16 15:11:59;;;;;;;;;;;27.40;99.10;;;;;;1771380;80;20260;-90
2021/08/16 15:14:29;;;;;;;;;;;27.60;98.70;;;;;;1784991;80;20194;-89
2021/08/16 15:31:43;;;;;;;;;;;27.50;99.70;;;;;;1760426;79;20258;-93
2021/08/16 15:40:48;;;;;;;;;;;27.40;99.90;;;;;;1609245;89;20552;-93
2021/08/16 15:46:19;;;;;;;;;;;27.40;99.90;;;;;;1910325;74;20169;-92
2021/08/16 15:48:56;;;;;;;;;;;27.40;99.90;;;;;;1902793;74;20130;-90
2021/08/16 15:51:26;;;;;;;;;;;27.40;99.90;;;;;;1907134;73;20181;-91
2021/08/16 15:53:55;;;;;;;;;;;27.30;99.90;;;;;;1912639;74;20191;-94
2021/08/16 15:56:26;;;;;;;;;;;27.40;99.90;;;;;;1915237;73;20174;-91
2021/08/16 15:58:55;;;;;;;;;;;27.30;99.90;;;;;;1915951;74;20224;-92